Time;durP1;ratioP1;P1;durP2;ratioP2;P2;SDS_P1;SDS_P2;PMS_P1;PMS_P2;Temp;Humidity;BMP_temperature;BMP_pressure;BME280_temperature;BME280_humidity;BME280_pressure;Samples;Min_cycle;Max_cycle;Signal;HPM_P1;HPM_P2
2022/04/17 00:00:16;;;;;;;4.03;2.10;;;6.90;92.10;;;7.74;67.65;99413.31;4959311;28;21054;-85
2022/04/17 00:02:47;;;;;;;2.97;1.93;;;6.90;92.00;;;7.74;68.03;99404.69;4959414;28;20465;-86
2022/04/17 00:05:17;;;;;;;4.33;2.50;;;6.90;92.20;;;7.71;68.36;99407.53;4961494;28;20840;-84
2022/04/17 00:07:47;;;;;;;3.20;2.20;;;6.80;92.10;;;7.68;68.00;99406.03;4958037;28;21345;-85
2022/04/17 00:10:16;;;;;;;3.33;2.23;;;6.80;92.30;;;7.65;68.29;99401.09;4961302;28;20474;-85
2022/04/17 00:12:46;;;;;;;3.50;2.10;;;6.70;92.20;;;7.63;68.46;99395.22;4962740;28;20539;-84
2022/04/17 00:15:18;;;;;;;3.93;2.03;;;6.70;92.30;;;7.57;68.42;99388.75;4962887;28;20600;-84
2022/04/17 00:17:48;;;;;;;5.10;2.37;;;6.80;92.20;;;7.56;69.49;99389.75;4963027;28;20468;-85
2022/04/17 00:20:19;;;;;;;3.20;2.00;;;6.60;92.50;;;7.55;69.74;99401.09;4963620;28;20945;-85
2022/04/17 00:22:49;;;;;;;2.60;2.23;;;6.50;92.60;;;7.53;69.57;99394.38;4964476;28;20485;-85
2022/04/17 00:25:20;;;;;;;2.97;1.90;;;6.60;92.60;;;7.46;69.87;99391.47;4960753;28;20535;-85
2022/04/17 00:27:50;;;;;;;3.80;2.20;;;6.40;92.70;;;7.41;69.27;99388.47;4960799;28;20483;-85
2022/04/17 00:30:22;;;;;;;3.10;2.00;;;6.50;92.50;;;7.39;70.12;99385.16;4962319;28;20466;-85
2022/04/17 00:32:52;;;;;;;2.67;2.10;;;6.40;92.80;;;7.35;70.11;99378.59;4963984;28;20593;-84
2022/04/17 00:35:22;;;;;;;6.17;1.83;;;6.40;92.60;;;7.38;69.90;99382.72;4962756;28;20928;-85
2022/04/17 00:37:52;;;;;;;3.20;1.97;;;6.40;92.80;;;7.34;69.89;99376.94;4960714;28;20548;-85
2022/04/17 00:40:22;;;;;;;3.70;1.83;;;6.40;92.60;;;7.25;70.57;99374.31;4965670;28;20491;-85
2022/04/17 00:42:53;;;;;;;3.57;2.20;;;6.40;92.60;;;7.24;70.22;99370.91;4963959;28;20461;-85
2022/04/17 00:45:24;;;;;;;2.87;2.03;;;6.40;92.50;;;7.23;70.26;99373.63;4961178;28;20475;-85
2022/04/17 00:47:54;;;;;;;3.40;1.77;;;6.40;92.80;;;7.21;70.75;99371.16;4960527;28;20493;-85
2022/04/17 00:50:25;;;;;;;6.23;1.97;;;6.30;92.70;;;7.21;71.83;99375.53;4963111;28;20460;-85
2022/04/17 00:52:54;;;;;;;2.50;1.83;;;6.20;92.90;;;7.18;71.41;99381.84;4960876;28;20477;-85
2022/04/17 00:55:23;;;;;;;8.87;2.50;;;6.30;92.90;;;7.17;71.53;99374.16;4963001;28;20467;-85
2022/04/17 00:57:53;;;;;;;7.43;2.17;;;6.20;93.00;;;7.11;71.61;99372.94;4960042;28;21096;-85
2022/04/17 01:00:27;;;;;;;2.37;1.80;;;6.20;92.90;;;7.11;72.44;99374.69;4961485;28;20500;-86
2022/04/17 01:02:57;;;;;;;2.93;2.13;;;6.10;93.20;;;7.09;72.41;99377.41;4963300;28;20493;-84
2022/04/17 01:05:27;;;;;;;2.80;1.87;;;6.10;93.20;;;7.00;72.61;99367.81;4959572;28;20473;-85
2022/04/17 01:07:58;;;;;;;2.70;2.30;;;6.10;93.20;;;6.97;73.26;99368.09;4962670;28;20460;-85
2022/04/17 01:10:29;;;;;;;2.50;2.10;;;6.10;93.40;;;6.97;73.48;99373.28;4963347;28;20510;-85
2022/04/17 01:13:00;;;;;;;1.90;1.70;;;5.90;93.40;;;6.87;73.45;99364.63;4958857;28;20485;-85
2022/04/17 01:15:31;;;;;;;2.50;1.80;;;6.00;93.10;;;6.76;74.15;99354.31;4959786;28;20495;-84
2022/04/17 01:18:01;;;;;;;4.27;2.10;;;5.70;93.50;;;6.78;74.30;99363.63;4960959;28;20479;-85
2022/04/17 01:20:33;;;;;;;2.27;2.00;;;5.80;93.50;;;6.74;74.20;99351.00;4963018;28;20499;-85
2022/04/17 01:28:45;;;;;;;2.80;1.63;;;5.80;93.40;;;6.62;74.32;99363.28;4931016;28;20464;-84
2022/04/17 01:31:14;;;;;;;2.50;2.07;;;5.80;93.30;;;6.63;75.08;99364.09;4966019;28;21052;-84
2022/04/17 01:33:50;;;;;;;3.17;2.17;;;5.70;93.30;;;6.62;74.71;99359.84;4963003;28;20483;-84
2022/04/17 01:36:21;;;;;;;5.00;2.20;;;5.70;93.40;;;6.56;74.63;99359.41;4964183;28;20506;-84
2022/04/17 01:38:53;;;;;;;2.10;1.90;;;5.60;93.40;;;6.46;75.17;99357.72;4962333;28;20496;-84
2022/04/17 01:41:24;;;;;;;4.70;1.77;;;5.60;93.70;;;6.48;76.18;99356.66;4964335;28;20555;-84
2022/04/17 01:43:54;;;;;;;2.63;1.83;;;5.50;93.70;;;6.46;76.18;99360.31;4963092;28;20885;-85
2022/04/17 01:46:25;;;;;;;3.00;2.20;;;5.50;93.60;;;6.39;75.87;99356.56;4962397;28;20542;-85
2022/04/17 01:48:56;;;;;;;2.30;2.10;;;5.60;93.50;;;6.39;75.99;99353.97;4962139;28;20468;-84
2022/04/17 01:51:27;;;;;;;7.40;2.10;;;5.40;93.60;;;6.36;75.71;99352.47;4963129;28;21002;-84
2022/04/17 01:53:58;;;;;;;3.23;2.53;;;5.40;93.50;;;6.33;75.88;99357.09;4961719;28;20495;-84
2022/04/17 01:56:30;;;;;;;2.70;2.00;;;5.40;93.80;;;6.34;76.07;99346.59;4963801;28;20478;-85
2022/04/17 01:58:59;;;;;;;3.73;1.63;;;5.40;93.70;;;6.27;75.89;99342.03;4960518;28;20491;-85
2022/04/17 02:01:30;;;;;;;2.83;2.17;;;5.40;93.60;;;6.27;76.41;99345.44;4962340;28;20495;-86
2022/04/17 02:04:01;;;;;;;2.50;1.80;;;5.30;93.70;;;6.25;76.20;99349.13;4960675;28;20462;-85
2022/04/17 02:06:31;;;;;;;4.33;2.10;;;5.30;93.80;;;6.26;76.78;99336.00;4962094;28;20467;-85
2022/04/17 02:09:02;;;;;;;2.90;2.27;;;5.20;93.80;;;6.20;77.22;99346.91;4960932;28;20818;-85
2022/04/17 02:11:33;;;;;;;5.17;2.00;;;5.10;94.10;;;6.13;76.65;99345.78;4960274;28;20551;-85
2022/04/17 02:14:03;;;;;;;3.60;2.30;;;5.20;93.80;;;6.11;77.43;99342.47;4960091;28;21054;-84
2022/04/17 02:16:34;;;;;;;2.53;2.17;;;5.10;94.10;;;6.07;77.71;99341.88;4961896;28;20475;-84
2022/04/17 02:19:04;;;;;;;2.80;2.10;;;5.10;94.00;;;6.06;78.75;99342.03;4962110;28;20493;-85
2022/04/17 02:21:34;;;;;;;3.37;2.40;;;5.00;94.20;;;6.03;79.21;99335.31;4962620;28;20498;-85
2022/04/17 02:24:07;;;;;;;4.00;2.03;;;4.90;94.30;;;6.01;79.12;99333.78;4962013;28;20468;-85
2022/04/17 02:26:38;;;;;;;1.60;1.50;;;5.00;94.30;;;5.99;79.31;99322.72;4962086;28;20475;-85
2022/04/17 02:29:08;;;;;;;3.10;2.40;;;5.00;94.30;;;5.96;78.95;99318.59;4961894;28;20524;-84
2022/04/17 02:31:38;;;;;;;3.73;2.57;;;4.90;94.30;;;5.94;78.89;99322.25;4960586;28;20488;-84
2022/04/17 02:34:09;;;;;;;3.00;2.47;;;5.00;94.40;;;5.90;78.97;99315.69;4960871;28;20929;-84
2022/04/17 02:36:39;;;;;;;3.70;2.40;;;4.90;94.30;;;5.85;79.29;99310.00;4961420;28;20472;-85
2022/04/17 02:39:11;;;;;;;2.77;2.00;;;4.90;94.10;;;5.83;79.65;99314.53;4959207;28;21164;-85
2022/04/17 02:41:41;;;;;;;4.70;2.40;;;4.90;94.20;;;5.74;79.62;99310.06;4960288;28;20857;-84
2022/04/17 02:44:12;;;;;;;2.70;2.13;;;4.90;94.40;;;5.61;80.82;99301.63;4960955;28;20475;-84
2022/04/17 02:49:30;;;;;;;2.90;2.00;;;4.60;94.60;;;5.57;81.45;99296.72;4961280;28;20465;-85
2022/04/17 02:51:59;;;;;;;8.07;2.37;;;4.70;94.60;;;5.62;81.81;99309.31;4959941;28;20470;-85
2022/04/17 02:54:31;;;;;;;3.70;1.80;;;4.60;94.70;;;5.52;81.85;99303.19;4959963;28;20499;-84
2022/04/17 02:57:01;;;;;;;3.67;2.50;;;4.60;94.70;;;5.54;82.40;99307.34;4960191;28;20885;-85
2022/04/17 02:59:30;;;;;;;2.67;2.20;;;4.50;94.90;;;5.53;82.61;99300.50;4962232;28;20499;-84
2022/04/17 03:07:32;;;;;;;3.47;2.50;;;4.60;94.80;;;5.44;82.11;99306.44;4962221;28;20461;-85
2022/04/17 03:10:03;;;;;;;2.77;1.93;;;4.60;94.60;;;5.46;83.08;99307.13;4962884;28;20472;-85
2022/04/17 03:12:32;;;;;;;3.80;2.53;;;4.40;94.90;;;5.43;82.75;99306.53;4960629;28;20540;-85
2022/04/17 03:15:01;;;;;;;3.33;2.07;;;4.50;94.90;;;5.41;82.80;99306.69;4958816;28;20560;-85
2022/04/17 03:17:32;;;;;;;7.00;2.93;;;4.50;94.90;;;5.34;82.72;99302.09;4961016;28;20552;-85
2022/04/17 03:20:03;;;;;;;3.20;2.37;;;4.40;94.80;;;5.21;83.17;99293.63;4961112;28;20458;-85
2022/04/17 03:22:33;;;;;;;3.37;2.43;;;4.30;94.80;;;5.22;83.18;99298.72;4962795;28;20495;-84
2022/04/17 03:25:06;;;;;;;2.87;2.50;;;4.30;94.90;;;5.16;83.87;99296.63;4958654;28;20922;-85
2022/04/17 03:27:36;;;;;;;3.90;2.17;;;4.40;94.80;;;5.08;84.58;99296.38;4961619;28;20982;-85
2022/04/17 03:30:09;;;;;;;3.37;2.53;;;4.40;94.80;;;5.04;84.47;99293.22;4959125;28;20466;-85
2022/04/17 03:32:39;;;;;;;2.20;2.00;;;4.40;94.70;;;5.04;85.11;99292.38;4960446;28;20469;-84
2022/04/17 03:35:11;;;;;;;4.03;3.20;;;4.20;95.00;;;4.96;85.79;99285.22;4958405;28;20500;-85
2022/04/17 03:37:43;;;;;;;2.27;1.97;;;4.00;95.30;;;4.93;86.11;99279.44;4958880;28;20474;-85
2022/04/17 03:40:16;;;;;;;3.60;2.30;;;3.90;95.50;;;4.86;86.35;99288.69;4962994;28;20961;-85
2022/04/17 03:42:47;;;;;;;2.37;2.03;;;3.80;95.60;;;4.85;85.89;99287.03;4959748;28;20469;-85
2022/04/17 03:45:17;;;;;;;3.30;2.10;;;3.90;95.40;;;4.83;85.77;99287.13;4960278;28;20894;-84
2022/04/17 03:47:47;;;;;;;2.70;2.07;;;4.00;95.20;;;4.86;86.39;99289.47;4960221;28;20495;-84
2022/04/17 03:50:17;;;;;;;2.27;2.07;;;4.00;95.40;;;4.85;86.55;99285.25;4959669;28;20827;-85
2022/04/17 03:52:49;;;;;;;3.80;2.30;;;4.00;95.40;;;4.80;86.40;99278.78;4958846;28;20551;-86
2022/04/17 03:55:20;;;;;;;2.47;2.00;;;4.00;95.40;;;4.77;87.34;99276.41;4960774;28;20503;-85
2022/04/17 03:57:50;;;;;;;2.43;2.03;;;3.90;95.60;;;4.78;87.40;99275.50;4960842;28;20464;-85
2022/04/17 04:00:38;;;;;;;10.67;2.33;;;3.90;95.70;;;4.79;86.96;99271.97;4962337;28;20557;-85
2022/04/17 04:03:09;;;;;;;2.40;2.20;;;3.90;95.80;;;4.77;87.29;99273.81;4959724;28;20497;-85
2022/04/17 04:11:29;;;;;;;2.93;2.20;;;3.80;95.80;;;4.66;87.41;99279.84;4860621;29;20483;-85
2022/04/17 04:14:09;;;;;;;2.40;2.20;;;3.80;95.70;;;4.48;88.01;99279.50;4919915;29;20505;-86
2022/04/17 04:16:40;;;;;;;2.23;1.77;;;3.70;95.50;;;4.45;88.75;99284.91;4930647;28;20473;-85
2022/04/17 04:19:31;;;;;;;2.97;2.43;;;3.70;95.90;;;4.49;89.04;99285.50;4959797;28;20463;-85
2022/04/17 04:22:05;;;;;;;3.17;2.23;;;3.60;95.80;;;4.44;88.53;99283.25;4959713;28;20489;-85
2022/04/17 04:24:36;;;;;;;2.17;1.97;;;3.70;95.70;;;4.33;89.05;99280.69;4960819;28;20463;-85
2022/04/17 04:29:58;;;;;;;4.23;2.20;;;3.60;95.80;;;4.36;89.76;99289.97;4957712;28;20468;-85
2022/04/17 04:32:28;;;;;;;5.10;2.20;;;3.60;95.70;;;4.30;89.74;99290.47;4956109;28;20475;-74
2022/04/17 04:35:07;;;;;;;2.93;2.13;;;3.60;95.70;;;4.19;89.81;99293.88;4959056;28;20564;-74
2022/04/17 04:37:37;;;;;;;4.20;2.43;;;3.50;95.60;;;4.21;90.74;99291.97;4960763;28;20478;-75
2022/04/17 04:40:13;;;;;;;3.10;2.00;;;3.40;96.20;;;4.21;91.37;99291.13;4961401;28;20467;-75
2022/04/17 04:42:44;;;;;;;2.87;2.40;;;3.30;96.30;;;4.25;91.39;99288.22;4961865;28;20516;-74
2022/04/17 04:48:03;;;;;;;4.17;2.30;;;3.40;96.10;;;4.16;92.07;99303.63;4959966;28;20467;-74
2022/04/17 04:50:35;;;;;;;3.70;2.67;;;3.40;96.40;;;4.21;91.92;99297.16;4960259;28;20461;-74
2022/04/17 04:53:05;;;;;;;6.03;2.50;;;3.40;96.30;;;4.25;91.65;99292.56;4960840;28;20460;-74
2022/04/17 04:55:39;;;;;;;2.27;1.83;;;3.30;96.30;;;4.28;91.70;99298.31;4958694;28;20490;-74
2022/04/17 04:58:11;;;;;;;3.60;2.67;;;3.30;96.50;;;4.24;91.44;99294.31;4963284;28;20505;-74
2022/04/17 05:00:45;;;;;;;4.10;2.63;;;3.40;96.20;;;4.21;91.43;99301.50;4967103;28;21001;-74
2022/04/17 05:03:15;;;;;;;3.30;2.20;;;3.40;96.30;;;4.13;91.88;99307.25;4964002;28;20850;-74
2022/04/17 05:05:45;;;;;;;4.70;2.33;;;3.40;96.20;;;4.12;92.20;99297.84;4965149;28;20807;-75
2022/04/17 05:08:37;;;;;;;5.80;2.30;;;3.20;96.70;;;4.18;92.59;99299.97;4962814;28;20974;-74
2022/04/17 05:11:08;;;;;;;6.47;2.23;;;3.20;96.60;;;4.13;92.38;99298.69;4963086;28;20458;-75
2022/04/17 05:13:38;;;;;;;3.83;2.23;;;3.30;96.50;;;4.12;92.46;99303.03;4963682;28;20465;-75
2022/04/17 05:16:10;;;;;;;2.47;2.10;;;3.30;96.80;;;4.13;92.56;99309.84;4962417;28;20507;-75
2022/04/17 05:18:40;;;;;;;8.87;2.50;;;3.30;96.60;;;4.14;92.72;99306.31;4962305;28;20489;-75
2022/04/17 05:21:11;;;;;;;3.07;2.50;;;3.30;96.80;;;4.12;92.41;99304.78;4963728;28;20493;-74
2022/04/17 05:23:41;;;;;;;2.83;2.10;;;3.40;96.40;;;4.15;93.03;99302.78;4963280;28;20571;-75
2022/04/17 05:26:11;;;;;;;4.23;2.27;;;3.40;96.60;;;4.14;93.50;99301.13;4961388;28;20492;-81
2022/04/17 05:28:41;;;;;;;3.83;2.40;;;3.40;96.70;;;4.13;93.38;99298.69;4959816;28;20497;-75
2022/04/17 05:31:12;;;;;;;4.90;2.57;;;3.30;96.70;;;4.10;94.29;99294.53;4963786;28;20583;-75
2022/04/17 05:33:42;;;;;;;2.63;2.10;;;3.30;97.10;;;4.15;94.56;99295.03;4964656;28;20471;-74
2022/04/17 05:36:10;;;;;;;7.10;2.67;;;3.30;97.20;;;4.21;94.30;99299.72;4964116;28;20510;-75
2022/04/17 05:38:41;;;;;;;9.53;3.20;;;3.40;97.20;;;4.26;94.09;99297.63;4961049;28;20523;-75
2022/04/17 05:41:12;;;;;;;2.90;2.33;;;3.40;97.20;;;4.27;94.26;99301.84;4963566;28;20463;-75
2022/04/17 05:43:42;;;;;;;2.37;1.97;;;3.50;97.20;;;4.33;94.63;99303.16;4960497;28;20473;-75
2022/04/17 05:46:13;;;;;;;5.33;2.40;;;3.40;97.30;;;4.38;94.88;99308.81;4964238;28;20839;-75
2022/04/17 05:48:45;;;;;;;2.90;2.07;;;3.50;97.30;;;4.44;95.19;99303.97;4961632;28;20459;-75
2022/04/17 05:51:13;;;;;;;4.80;2.57;;;3.50;97.80;;;4.43;95.44;99299.75;4959999;28;20489;-75
2022/04/17 05:53:43;;;;;;;3.20;2.40;;;3.50;97.60;;;4.47;95.59;99306.34;4961772;28;20465;-75
2022/04/17 05:56:12;;;;;;;4.90;2.70;;;3.60;97.60;;;4.56;95.88;99299.63;4961972;28;21102;-75
2022/04/17 05:58:41;;;;;;;3.83;2.80;;;3.60;97.30;;;4.60;95.48;99292.44;4963564;28;20525;-75
2022/04/17 06:01:12;;;;;;;4.13;2.40;;;3.70;97.20;;;4.65;95.05;99303.28;4960278;28;20501;-75
2022/04/17 06:03:43;;;;;;;3.63;2.53;;;3.70;97.40;;;4.69;95.00;99294.31;4960851;28;20470;-75
2022/04/17 06:06:13;;;;;;;10.10;2.07;;;3.80;97.60;;;4.74;95.34;99302.56;4961780;28;21236;-75
2022/04/17 06:08:42;;;;;;;10.27;2.43;;;3.80;97.40;;;4.79;95.04;99306.44;4957995;28;20475;-74
2022/04/17 06:11:12;;;;;;;4.43;2.40;;;3.80;97.40;;;4.86;94.84;99301.63;4961343;28;20864;-75
2022/04/17 06:13:42;;;;;;;3.57;2.30;;;3.90;97.60;;;4.89;95.14;99302.22;4962193;28;20467;-75
2022/04/17 06:16:14;;;;;;;5.60;2.57;;;3.90;97.70;;;4.94;95.48;99302.66;4958868;28;20594;-75
2022/04/17 06:18:45;;;;;;;3.77;2.23;;;4.00;98.00;;;4.99;96.22;99299.72;4958558;28;20550;-74
2022/04/17 06:21:18;;;;;;;3.73;1.83;;;4.00;98.10;;;5.04;95.87;99295.81;4960177;28;21254;-74
2022/04/17 06:23:47;;;;;;;5.20;2.47;;;4.10;97.90;;;5.10;96.50;99296.28;4959260;28;20498;-81
2022/04/17 06:26:17;;;;;;;12.23;5.30;;;4.20;98.10;;;5.15;96.24;99300.16;4960673;28;20968;-74
2022/04/17 06:28:47;;;;;;;3.00;2.40;;;4.20;97.70;;;5.20;95.49;99295.44;4961219;28;20465;-75
2022/04/17 06:31:19;;;;;;;4.47;2.13;;;4.30;97.50;;;5.26;95.77;99301.88;4959976;28;20989;-75
2022/04/17 06:33:49;;;;;;;3.40;2.00;;;4.30;97.40;;;5.34;95.09;99300.34;4960164;28;20472;-75
2022/04/17 06:36:18;;;;;;;4.70;2.20;;;4.50;97.60;;;5.40;95.29;99307.63;4960967;28;20499;-74
2022/04/17 06:38:48;;;;;;;3.60;2.27;;;4.50;97.30;;;5.47;94.42;99298.41;4959263;28;20473;-74
2022/04/17 06:41:18;;;;;;;4.20;2.00;;;4.60;97.00;;;5.54;92.61;99294.38;4960180;28;20486;-74
2022/04/17 06:43:52;;;;;;;3.00;2.60;;;4.70;96.40;;;5.62;91.76;99285.97;4961304;28;20459;-74
2022/04/17 06:46:24;;;;;;;5.77;2.87;;;4.80;96.40;;;5.71;90.97;99292.16;4960632;28;20461;-74
2022/04/17 06:48:54;;;;;;;7.67;2.87;;;4.90;96.10;;;5.77;90.27;99276.06;4963231;28;20929;-74
2022/04/17 06:51:24;;;;;;;3.20;2.37;;;5.00;95.80;;;5.85;88.88;99277.09;4961395;28;21035;-74
2022/04/17 06:53:53;;;;;;;2.97;2.00;;;5.10;95.60;;;5.92;88.48;99275.69;4958690;28;20515;-74
2022/04/17 06:56:23;;;;;;;3.77;1.93;;;5.20;95.60;;;6.00;88.15;99275.03;4961480;28;20503;-74
2022/04/17 06:58:53;;;;;;;4.07;2.47;;;5.30;95.50;;;6.06;87.30;99282.31;4960405;28;20521;-74
2022/04/17 07:01:24;;;;;;;3.83;2.20;;;5.40;95.30;;;6.12;86.92;99276.59;4959287;28;20497;-75
2022/04/17 07:03:55;;;;;;;2.80;2.30;;;5.40;95.30;;;6.20;86.34;99278.56;4957929;28;20941;-74
2022/04/17 07:06:24;;;;;;;2.57;2.10;;;5.50;95.30;;;6.26;86.39;99278.03;4956837;28;20473;-75
2022/04/17 07:08:54;;;;;;;2.67;2.20;;;5.60;95.30;;;6.31;86.27;99268.94;4957559;28;20502;-75
2022/04/17 07:11:27;;;;;;;3.20;2.20;;;5.60;95.20;;;6.37;85.84;99272.75;4958121;28;20469;-75
2022/04/17 07:13:58;;;;;;;5.80;2.47;;;5.60;94.90;;;6.43;85.28;99265.28;4958272;28;20460;-75
2022/04/17 07:16:30;;;;;;;2.10;1.90;;;5.70;94.50;;;6.50;84.68;99256.00;4960899;28;20498;-74
2022/04/17 07:19:01;;;;;;;5.40;2.20;;;5.70;94.50;;;6.59;84.04;99255.19;4961795;28;20467;-74
2022/04/17 07:21:30;;;;;;;4.63;2.00;;;5.80;94.50;;;6.66;83.75;99254.69;4958768;28;20530;-75
2022/04/17 07:24:01;;;;;;;2.60;2.10;;;5.90;94.60;;;6.72;82.31;99248.97;4957856;28;21040;-75
2022/04/17 07:26:30;;;;;;;3.70;2.23;;;6.00;94.20;;;6.76;81.14;99245.16;4956339;28;20479;-74
2022/04/17 07:29:02;;;;;;;2.13;1.93;;;6.20;93.90;;;6.81;80.67;99250.75;4956956;28;20499;-74
2022/04/17 07:31:34;;;;;;;2.73;2.17;;;6.20;93.80;;;6.89;80.14;99245.72;4957375;28;20459;-74
2022/04/17 07:34:04;;;;;;;2.90;2.00;;;6.20;93.60;;;6.98;78.46;99243.13;4959388;28;20465;-74
2022/04/17 07:36:36;;;;;;;2.13;1.70;;;6.40;93.40;;;7.03;78.20;99232.31;4958674;28;20532;-74
2022/04/17 07:39:06;;;;;;;2.80;1.70;;;6.50;93.30;;;7.09;77.43;99234.38;4961798;28;20504;-74
2022/04/17 07:41:36;;;;;;;2.63;1.80;;;6.50;93.30;;;7.15;76.73;99239.03;4960984;28;20481;-75
2022/04/17 07:44:11;;;;;;;2.20;1.80;;;6.50;92.70;;;7.23;76.57;99233.16;4957239;28;20612;-75
2022/04/17 07:46:43;;;;;;;2.30;1.90;;;6.50;92.80;;;7.30;75.82;99245.47;4959974;28;20475;-75
2022/04/17 07:49:12;;;;;;;2.20;2.00;;;6.70;92.90;;;7.37;75.32;99236.19;4961685;28;20975;-75
2022/04/17 07:51:41;;;;;;;2.63;1.83;;;6.70;92.60;;;7.46;74.63;99243.16;4957411;28;20483;-75
2022/04/17 07:54:11;;;;;;;2.83;1.87;;;6.80;92.70;;;7.52;73.81;99234.81;4956940;28;20460;-75
2022/04/17 07:56:42;;;;;;;4.00;1.90;;;6.90;92.50;;;7.59;74.16;99235.91;4958283;28;20485;-75
2022/04/17 07:59:12;;;;;;;2.70;1.83;;;7.00;92.50;;;7.66;73.54;99230.13;4959688;28;20503;-75
2022/04/17 08:01:45;;;;;;;7.23;2.27;;;7.10;92.40;;;7.71;72.87;99217.50;4956189;28;20510;-75
2022/04/17 08:04:15;;;;;;;3.20;1.97;;;7.10;92.10;;;7.81;72.58;99218.34;4957061;28;20471;-75
2022/04/17 08:06:44;;;;;;;2.53;1.90;;;7.20;92.20;;;7.87;71.59;99215.97;4958540;28;20478;-74
2022/04/17 08:09:14;;;;;;;38.00;17.40;;;7.30;91.90;;;7.93;70.94;99205.00;4958853;28;20535;-75
2022/04/17 08:11:43;;;;;;;3.97;2.17;;;7.30;91.80;;;8.02;70.84;99203.31;4955498;28;20481;-75
2022/04/17 08:14:13;;;;;;;1.93;1.83;;;7.40;91.80;;;8.07;68.77;99198.50;4957403;28;20473;-75
2022/04/17 08:16:45;;;;;;;2.57;1.60;;;7.50;91.40;;;8.10;67.96;99193.84;4959107;28;20496;-76
2022/04/17 08:19:16;;;;;;;4.43;2.30;;;7.60;91.00;;;8.14;67.71;99183.94;4957375;28;20504;-75
2022/04/17 08:21:45;;;;;;;3.50;2.57;;;7.60;90.90;;;8.18;67.18;99176.66;4958642;28;20837;-75
2022/04/17 08:24:15;;;;;;;3.50;1.83;;;7.60;90.90;;;8.25;66.74;99175.94;4958331;28;20489;-76
2022/04/17 08:26:45;;;;;;;2.63;1.70;;;7.70;90.70;;;8.34;66.39;99180.31;4957843;28;20488;-75
2022/04/17 08:29:17;;;;;;;2.70;1.87;;;7.80;90.90;;;8.40;65.52;99169.31;4958567;28;20453;-76
2022/04/17 08:31:48;;;;;;;2.40;2.07;;;7.80;90.30;;;8.49;65.07;99163.22;4960032;28;20531;-75
2022/04/17 08:34:19;;;;;;;93.00;45.87;;;8.00;90.50;;;8.55;64.98;99162.66;4960924;28;20470;-80
2022/04/17 08:36:49;;;;;;;4.30;2.60;;;8.00;90.20;;;8.64;64.30;99175.78;4963858;28;21036;-75
2022/04/17 08:39:19;;;;;;;3.80;2.20;;;8.10;90.30;;;8.70;63.73;99175.19;4964235;28;20461;-76
2022/04/17 08:41:50;;;;;;;3.40;2.10;;;8.20;90.00;;;8.75;63.80;99178.16;4962092;28;20468;-76
2022/04/17 08:44:22;;;;;;;6.20;2.40;;;8.20;90.00;;;8.82;63.95;99168.78;4962050;28;20464;-75
2022/04/17 08:46:53;;;;;;;5.97;2.00;;;8.20;90.20;;;8.87;62.88;99162.16;4961148;28;21038;-76
2022/04/17 08:49:25;;;;;;;1.97;1.77;;;8.30;89.80;;;8.94;63.08;99171.03;4962768;28;20464;-76
2022/04/17 08:51:58;;;;;;;3.60;1.80;;;8.40;89.90;;;9.01;63.82;99158.22;4962124;28;20511;-76
2022/04/17 08:54:30;;;;;;;3.37;1.80;;;8.40;90.70;;;9.08;62.75;99160.06;4963053;28;20460;-75
2022/04/17 08:57:04;;;;;;;2.67;1.70;;;8.40;89.70;;;9.14;62.32;99153.41;4962909;28;20495;-76
2022/04/17 08:59:35;;;;;;;3.20;1.70;;;8.60;89.80;;;9.21;62.20;99159.69;4960724;28;20531;-75
2022/04/17 09:02:10;;;;;;;2.93;1.83;;;8.70;89.70;;;9.26;61.07;99152.22;4961805;28;20461;-75
2022/04/17 09:04:42;;;;;;;2.70;1.77;;;8.70;88.60;;;9.33;61.28;99147.22;4961669;28;20461;-75
2022/04/17 09:07:14;;;;;;;2.97;1.70;;;8.80;89.10;;;9.39;60.71;99155.25;4959689;28;20880;-75
2022/04/17 09:09:53;;;;;;;3.93;1.80;;;8.80;88.20;;;9.45;59.88;99153.81;4961342;28;21002;-75
2022/04/17 09:12:26;;;;;;;3.50;1.80;;;8.90;87.60;;;9.51;58.72;99154.03;4963603;28;20477;-75
2022/04/17 09:14:56;;;;;;;2.37;1.80;;;9.00;86.80;;;9.59;58.61;99154.09;4963328;28;20511;-75
2022/04/17 09:17:34;;;;;;;3.00;1.60;;;9.10;86.70;;;9.66;57.91;99149.06;4961221;28;20496;-75
2022/04/17 09:20:20;;;;;;;4.83;1.97;;;9.10;86.50;;;9.70;57.18;99144.38;4961392;28;20500;-76
2022/04/17 09:22:51;;;;;;;2.70;1.70;;;9.20;85.70;;;9.76;57.07;99138.50;4962109;28;20488;-75
2022/04/17 09:25:24;;;;;;;1.67;1.57;;;9.20;86.10;;;9.81;57.00;99131.03;4961045;28;20517;-75
2022/04/17 09:28:02;;;;;;;3.40;1.43;;;9.30;86.10;;;9.86;56.86;99115.72;4959983;28;20480;-75
2022/04/17 09:30:34;;;;;;;6.37;2.77;;;9.40;85.70;;;9.92;57.59;99108.09;4959537;28;20508;-80
2022/04/17 09:33:09;;;;;;;2.90;1.97;;;9.40;86.70;;;10.01;57.76;99112.38;4959579;28;20461;-75
2022/04/17 09:35:40;;;;;;;5.20;1.60;;;9.50;87.10;;;10.07;57.84;99121.34;4960039;28;20660;-75
2022/04/17 09:38:11;;;;;;;4.40;1.80;;;9.40;87.00;;;10.11;57.17;99120.06;4957983;28;20501;-75
2022/04/17 09:40:41;;;;;;;3.30;1.70;;;9.40;85.80;;;10.16;56.31;99114.41;4962793;28;20469;-75
2022/04/17 09:43:16;;;;;;;3.83;1.80;;;9.50;85.70;;;10.20;56.42;99126.19;4961521;28;20903;-76
2022/04/17 09:45:59;;;;;;;4.43;1.70;;;9.70;86.00;;;10.24;55.76;99117.88;4960025;28;20461;-76
2022/04/17 09:48:37;;;;;;;4.70;1.80;;;9.60;85.10;;;10.30;55.78;99106.78;4960675;28;20477;-76
2022/04/17 09:51:22;;;;;;;112.10;45.33;;;9.70;85.60;;;10.36;55.69;99100.09;4962412;28;20464;-75
2022/04/17 09:54:00;;;;;;;5.23;2.90;;;9.70;85.60;;;10.46;55.84;99098.16;4962336;28;21011;-76
2022/04/17 09:56:35;;;;;;;3.63;2.10;;;9.90;85.80;;;10.52;54.81;99090.50;4962251;28;20465;-75
2022/04/17 09:59:18;;;;;;;3.77;2.00;;;10.00;83.50;;;10.63;55.77;99102.44;4960508;28;20870;-75
2022/04/17 10:01:49;;;;;;;2.50;1.73;;;10.10;84.50;;;10.68;54.02;99094.13;4960520;28;20512;-76
2022/04/17 10:04:21;;;;;;;2.40;1.63;;;10.10;82.80;;;10.73;55.24;99091.81;4958426;28;20465;-82
2022/04/17 10:06:53;;;;;;;2.00;1.50;;;10.20;84.40;;;10.80;54.65;99082.34;4960833;28;20467;-76
2022/04/17 10:09:22;;;;;;;5.13;1.90;;;10.30;84.40;;;10.89;55.30;99078.78;4958528;28;20461;-76
2022/04/17 10:11:56;;;;;;;2.47;1.60;;;10.40;84.80;;;10.96;54.38;99077.97;4959385;28;20469;-76
2022/04/17 10:14:28;;;;;;;3.40;1.63;;;10.40;83.30;;;11.04;53.47;99079.72;4962415;28;20464;-76
2022/04/17 10:17:02;;;;;;;4.43;1.87;;;10.50;82.60;;;11.10;53.18;99077.31;4962173;28;20824;-76
2022/04/17 10:19:36;;;;;;;5.03;1.83;;;10.60;82.60;;;11.19;54.00;99077.28;4962759;28;20450;-76
2022/04/17 10:22:10;;;;;;;2.33;1.40;;;10.70;83.30;;;11.20;52.35;99065.81;4961983;28;21105;-76
2022/04/17 10:24:51;;;;;;;3.07;1.80;;;10.60;81.10;;;11.26;51.97;99065.97;4963638;28;20453;-75
2022/04/17 10:27:27;;;;;;;5.83;2.10;;;10.70;80.90;;;11.34;51.83;99076.44;4958499;28;20468;-76
2022/04/17 10:30:08;;;;;;;2.23;1.70;;;10.80;81.30;;;11.40;50.88;99073.16;4960004;28;20500;-76
2022/04/17 10:33:30;;;;;;;4.50;1.53;;;10.90;80.30;;;11.49;49.64;99060.84;4959526;28;20545;-76
2022/04/17 10:36:29;;;;;;;3.10;2.17;;;10.90;79.40;;;11.54;49.80;99046.28;4959872;28;20549;-76
2022/04/17 10:39:14;;;;;;;4.00;1.80;;;11.00;79.30;;;11.59;49.99;99048.41;4959805;28;20492;-75
2022/04/17 10:41:45;;;;;;;2.30;2.00;;;11.10;80.00;;;11.66;51.06;99049.38;4962660;28;20461;-76
2022/04/17 10:44:17;;;;;;;3.37;1.83;;;11.20;81.90;;;11.77;50.89;99045.56;4963464;28;20563;-76
2022/04/17 10:46:49;;;;;;;5.50;1.43;;;11.20;81.00;;;11.80;50.71;99040.78;4960441;28;20469;-76
2022/04/17 10:49:19;;;;;;;1.83;1.40;;;11.30;80.70;;;11.84;50.77;99025.56;4961055;28;20442;-76
2022/04/17 10:51:55;;;;;;;3.73;1.67;;;11.20;80.70;;;11.90;50.90;99024.88;4963115;28;20546;-75
2022/04/17 10:54:25;;;;;;;2.50;1.63;;;11.40;81.20;;;11.95;50.52;99033.88;4963078;28;20444;-76
2022/04/17 10:57:08;;;;;;;3.10;1.87;;;11.40;80.80;;;12.06;49.31;99032.66;4964685;28;20457;-76
2022/04/17 10:59:40;;;;;;;4.73;1.90;;;11.50;79.40;;;12.09;49.28;99014.78;4965629;28;21232;-76
2022/04/17 11:02:25;;;;;;;4.20;1.67;;;11.50;79.00;;;12.10;49.08;99015.59;4964020;28;20529;-76
2022/04/17 11:04:56;;;;;;;2.50;1.50;;;11.50;78.80;;;12.18;49.57;99018.19;4962416;28;20453;-76
2022/04/17 11:07:30;;;;;;;2.90;1.90;;;11.60;80.10;;;12.19;49.19;99022.44;4961074;28;20496;-76
2022/04/17 11:10:23;;;;;;;1.87;1.30;;;11.60;79.30;;;12.21;47.17;99017.84;4960457;28;20437;-76
2022/04/17 11:12:58;;;;;;;2.23;1.50;;;11.70;76.90;;;12.25;47.96;99026.97;4961259;28;20479;-75
2022/04/17 11:15:32;;;;;;;2.50;1.70;;;11.70;78.50;;;12.32;48.40;99020.03;4962607;28;20500;-76